Time;durP1;ratioP1;P1;durP2;ratioP2;P2;SDS_P1;SDS_P2;PMS_P1;PMS_P2;Temp;Humidity;BMP_temperature;BMP_pressure;BME280_temperature;BME280_humidity;BME280_pressure;Samples;Min_cycle;Max_cycle;Signal;HPM_P1;HPM_P2
2024/01/09 00:01:04;;;;;;;4.80;3.90;;;-2.70;99.90;;;;;;4998437;28;20052;-87
2024/01/09 00:03:30;;;;;;;4.32;2.95;;;-1.50;99.90;;;;;;4998280;28;20404;-88
2024/01/09 00:05:56;;;;;;;4.03;3.58;;;;;;;;;;4998195;28;20491;-87
2024/01/09 00:08:22;;;;;;;4.13;3.33;;;-3.40;99.90;;;;;;4998586;28;20394;-88
2024/01/09 00:10:48;;;;;;;4.57;3.50;;;-2.30;99.90;;;;;;4998520;28;20132;-88
2024/01/09 00:13:13;;;;;;;5.55;3.70;;;-3.50;99.90;;;;;;5014499;28;20096;-87
2024/01/09 00:15:39;;;;;;;5.18;3.58;;;-3.50;99.90;;;;;;4998164;28;20136;-88
2024/01/09 00:18:05;;;;;;;5.70;4.15;;;-2.20;99.90;;;;;;4981905;28;20038;-88
2024/01/09 00:20:30;;;;;;;5.32;3.83;;;-3.50;99.90;;;;;;4981906;28;20054;-88
2024/01/09 00:22:56;;;;;;;5.05;3.28;;;-2.50;99.90;;;;;;4998345;28;20076;-87
2024/01/09 00:25:22;;;;;;;5.53;3.78;;;-2.10;99.90;;;;;;4981734;28;20111;-87
2024/01/09 00:27:47;;;;;;;3.55;3.25;;;-3.40;99.90;;;;;;5014058;28;20042;-88
2024/01/09 00:30:13;;;;;;;3.55;3.25;;;-3.50;99.90;;;;;;4965207;28;20046;-88
2024/01/09 00:32:39;;;;;;;3.78;3.35;;;-3.50;99.90;;;;;;5014218;28;20046;-89
2024/01/09 00:35:05;;;;;;;4.10;3.08;;;-3.00;99.90;;;;;;5014254;28;20132;-88
2024/01/09 00:37:31;;;;;;;5.07;3.92;;;-3.50;99.90;;;;;;5013912;28;20057;-88
2024/01/09 00:39:57;;;;;;;4.82;3.63;;;-3.60;99.90;;;;;;5013964;28;20046;-88
2024/01/09 00:42:23;;;;;;;5.13;4.63;;;-3.60;99.90;;;;;;4965367;28;20049;-88
2024/01/09 00:44:48;;;;;;;6.18;3.25;;;-3.60;99.90;;;;;;4981507;28;20077;-89
2024/01/09 00:47:14;;;;;;;3.63;3.13;;;-3.60;99.90;;;;;;4997163;28;20050;-89
2024/01/09 00:49:40;;;;;;;4.88;3.78;;;-3.50;99.90;;;;;;4997603;28;20116;-88
2024/01/09 00:52:06;;;;;;;3.67;3.15;;;-2.90;99.90;;;;;;4997336;28;20463;-88
2024/01/09 00:54:32;;;;;;;3.55;3.00;;;-3.60;99.90;;;;;;4982081;28;20508;-88
2024/01/09 00:56:57;;;;;;;4.63;3.28;;;-3.60;99.90;;;;;;5013746;28;20042;-89
2024/01/09 00:59:23;;;;;;;3.13;2.83;;;-3.70;99.90;;;;;;4981483;28;20387;-88
2024/01/09 01:01:50;;;;;;;3.70;2.90;;;-3.20;99.90;;;;;;4981605;28;20466;-90
2024/01/09 01:04:16;;;;;;;5.03;3.17;;;-2.10;99.90;;;;;;4997041;28;20042;-87
2024/01/09 01:06:44;;;;;;;4.70;3.10;;;-3.60;99.90;;;;;;4997005;28;20502;-88
2024/01/09 01:09:10;;;;;;;4.30;3.03;;;-2.80;99.90;;;;;;4997331;28;20104;-88
2024/01/09 01:11:36;;;;;;;4.45;3.60;;;-2.20;99.90;;;;;;4997354;28;20506;-89
2024/01/09 01:14:02;;;;;;;4.00;2.85;;;-3.70;99.90;;;;;;4997127;28;20046;-89
2024/01/09 01:16:28;;;;;;;3.70;2.85;;;-2.40;99.90;;;;;;4997323;28;20509;-90
2024/01/09 01:18:54;;;;;;;5.00;2.97;;;-2.40;99.90;;;;;;4996614;28;20092;-88
2024/01/09 01:21:20;;;;;;;3.70;2.78;;;-3.80;99.90;;;;;;4980793;28;20140;-88
2024/01/09 01:23:45;;;;;;;3.47;2.88;;;-2.40;99.90;;;;;;4980702;28;20048;-88
2024/01/09 01:26:11;;;;;;;3.85;2.70;;;-1.40;99.90;;;;;;4996961;28;20053;-89
2024/01/09 01:28:37;;;;;;;3.67;3.10;;;-3.80;99.90;;;;;;5013140;28;20490;-89
2024/01/09 01:31:03;;;;;;;3.25;2.65;;;-3.70;99.90;;;;;;4981409;28;20042;-89
2024/01/09 01:33:29;;;;;;;4.95;3.08;;;;;;;;;;5013287;28;20053;-88
2024/01/09 01:35:55;;;;;;;3.75;3.20;;;-3.70;99.90;;;;;;4996644;28;20133;-88
2024/01/09 01:38:21;;;;;;;4.53;4.18;;;-2.10;99.90;;;;;;4996973;28;20081;-89
2024/01/09 01:40:47;;;;;;;4.63;3.20;;;-3.80;99.90;;;;;;5012531;28;20556;-88
2024/01/09 01:43:12;;;;;;;3.67;2.75;;;-3.80;99.90;;;;;;4995771;28;20104;-88
2024/01/09 01:45:38;;;;;;;5.78;3.45;;;-3.80;99.90;;;;;;5012650;28;20049;-88
2024/01/09 01:48:05;;;;;;;3.45;2.70;;;-3.80;99.90;;;;;;4981262;28;20041;-87
2024/01/09 01:50:31;;;;;;;6.20;3.75;;;-3.80;99.90;;;;;;4980244;28;20053;-88
2024/01/09 01:53:00;;;;;;;3.25;2.95;;;-3.80;99.90;;;;;;4996078;28;20421;-88
2024/01/09 01:55:27;;;;;;;4.03;3.35;;;-3.80;99.90;;;;;;4996435;28;20042;-88
2024/01/09 01:58:07;;;;;;;3.72;2.90;;;-3.80;99.90;;;;;;5142354;27;20387;-83
2024/01/09 02:00:33;;;;;;;3.20;2.80;;;-3.80;99.90;;;;;;5123408;28;20047;-83
2024/01/09 02:02:59;;;;;;;4.00;3.47;;;-3.80;99.90;;;;;;5122557;28;20054;-83
2024/01/09 02:05:27;;;;;;;4.45;3.00;;;-3.80;99.90;;;;;;5106998;28;20039;-83
2024/01/09 02:07:54;;;;;;;4.28;2.85;;;-3.90;99.90;;;;;;5070931;22;20053;-83
2024/01/09 02:10:20;;;;;;;3.58;2.67;;;-3.90;99.90;;;;;;5009504;28;20103;-83
2024/01/09 02:12:46;;;;;;;4.03;3.15;;;-3.80;99.90;;;;;;5010193;28;20505;-83
2024/01/09 02:15:12;;;;;;;4.75;3.25;;;-3.90;99.90;;;;;;5010197;28;20385;-82
2024/01/09 02:17:38;;;;;;;3.90;3.50;;;-3.90;99.90;;;;;;5042248;28;20349;-83
2024/01/09 02:20:08;;;;;;;3.90;2.63;;;-3.90;99.90;;;;;;5010670;28;20413;-83
2024/01/09 02:22:34;;;;;;;4.15;3.30;;;-3.90;99.90;;;;;;5025023;28;20053;-83
2024/01/09 02:25:00;;;;;;;4.03;3.10;;;-4.00;99.90;;;;;;5042935;28;20045;-83
2024/01/09 02:27:48;;;;;;;6.38;3.10;;;-3.90;99.90;;;;;;5025179;28;20042;-83
2024/01/09 02:30:14;;;;;;;3.83;3.10;;;-4.00;99.90;;;;;;5042584;28;20449;-83
2024/01/09 02:32:40;;;;;;;3.80;3.05;;;-4.00;99.90;;;;;;5009591;28;20072;-83
2024/01/09 02:35:06;;;;;;;3.60;3.17;;;-3.90;99.90;;;;;;4992716;28;20045;-83
2024/01/09 02:37:31;;;;;;;3.60;2.88;;;-4.00;99.90;;;;;;5025868;28;20135;-82
2024/01/09 02:40:01;;;;;;;4.72;3.38;;;-4.00;99.90;;;;;;5008420;28;20043;-82
2024/01/09 02:42:27;;;;;;;3.45;3.15;;;-3.60;99.90;;;;;;5025922;28;20045;-82
2024/01/09 02:44:56;;;;;;;3.75;3.28;;;-4.00;99.90;;;;;;5008857;28;20037;-82
2024/01/09 02:47:23;;;;;;;5.05;3.13;;;-4.00;99.90;;;;;;5025782;28;20037;-83
2024/01/09 02:49:48;;;;;;;5.47;3.30;;;-3.00;99.90;;;;;;5025985;28;20100;-83
2024/01/09 02:52:15;;;;;;;3.22;2.88;;;-4.10;99.90;;;;;;5008634;28;20045;-83
2024/01/09 02:54:41;;;;;;;3.92;2.80;;;-4.10;99.90;;;;;;5009791;28;20041;-83
2024/01/09 02:57:08;;;;;;;6.20;3.63;;;-3.60;99.90;;;;;;4992169;28;20087;-83
2024/01/09 02:59:34;;;;;;;4.18;2.90;;;-4.10;99.90;;;;;;5025857;28;20099;-83
2024/01/09 03:02:00;;;;;;;3.85;3.30;;;-4.10;99.90;;;;;;5008719;28;20041;-83
2024/01/09 03:04:25;;;;;;;3.35;2.97;;;-4.10;99.90;;;;;;5025153;28;20053;-83
2024/01/09 03:06:51;;;;;;;4.20;3.20;;;-4.10;99.90;;;;;;4992992;28;20049;-82
2024/01/09 03:09:17;;;;;;;3.83;3.30;;;-4.10;99.90;;;;;;4996337;28;20045;-83
2024/01/09 03:11:44;;;;;;;4.07;3.05;;;-4.10;99.90;;;;;;4996332;28;20041;-83
2024/01/09 03:14:09;;;;;;;4.28;2.80;;;-4.10;99.90;;;;;;4995172;28;20087;-83
2024/01/09 03:16:35;;;;;;;3.40;2.85;;;-3.90;99.90;;;;;;4996379;28;20049;-83
2024/01/09 03:19:01;;;;;;;3.60;2.70;;;-4.20;99.90;;;;;;4991806;28;20046;-83
2024/01/09 03:21:26;;;;;;;3.67;3.30;;;-4.10;99.90;;;;;;4992216;28;20379;-83
2024/01/09 03:23:52;;;;;;;5.05;3.20;;;-4.20;99.90;;;;;;4992104;28;20046;-82
2024/01/09 03:26:18;;;;;;;3.45;3.15;;;-4.10;99.90;;;;;;4992159;28;20050;-83
2024/01/09 03:28:44;;;;;;;4.10;3.70;;;-4.20;99.90;;;;;;4992761;28;20046;-83
2024/01/09 03:31:23;;;;;;;4.13;3.55;;;-4.20;99.90;;;;;;4993823;28;20042;-83
2024/01/09 03:33:50;;;;;;;4.78;3.60;;;-4.20;99.90;;;;;;4976149;28;20387;-83
2024/01/09 03:36:17;;;;;;;3.70;3.22;;;-4.20;99.90;;;;;;4959447;28;20033;-83
2024/01/09 03:38:43;;;;;;;3.58;3.25;;;-4.20;99.90;;;;;;4992236;28;20042;-82
2024/01/09 03:41:09;;;;;;;4.13;3.38;;;-4.20;99.90;;;;;;4992033;28;20034;-83
2024/01/09 03:43:35;;;;;;;4.18;3.40;;;-4.20;99.90;;;;;;4975426;28;20113;-83
2024/01/09 03:46:02;;;;;;;4.25;3.33;;;-4.30;99.90;;;;;;5041284;28;20383;-83
2024/01/09 03:48:27;;;;;;;3.28;2.97;;;-4.30;99.90;;;;;;4974723;28;20151;-83
2024/01/09 03:50:54;;;;;;;4.97;3.78;;;-4.30;99.90;;;;;;4959918;28;20038;-83
2024/01/09 03:53:19;;;;;;;5.13;3.20;;;-4.30;99.90;;;;;;4975416;28;20048;-83
2024/01/09 03:55:45;;;;;;;4.30;3.42;;;-4.40;99.90;;;;;;4975622;28;20054;-83
2024/01/09 03:58:12;;;;;;;4.82;3.20;;;-4.40;99.90;;;;;;4975972;28;20046;-83
2024/01/09 04:00:40;;;;;;;5.20;3.70;;;-4.40;99.90;;;;;;4991383;28;20046;-83
2024/01/09 04:03:06;;;;;;;6.03;3.88;;;-4.40;99.90;;;;;;4975964;28;20041;-83
2024/01/09 04:05:32;;;;;;;4.72;3.70;;;-4.40;99.90;;;;;;4990730;28;20160;-83
2024/01/09 04:07:58;;;;;;;5.72;4.15;;;-4.40;99.90;;;;;;4991134;28;20108;-83
2024/01/09 04:10:24;;;;;;;5.45;3.92;;;-4.40;99.90;;;;;;4973481;28;20050;-83
2024/01/09 04:12:50;;;;;;;4.32;3.50;;;-3.80;99.90;;;;;;4959509;28;20041;-83
2024/01/09 04:15:16;;;;;;;5.53;3.80;;;-4.40;99.90;;;;;;4994999;28;20485;-83
2024/01/09 04:17:41;;;;;;;4.80;3.40;;;-4.40;99.90;;;;;;5009216;28;20060;-83
2024/01/09 04:20:11;;;;;;;4.07;3.67;;;-4.40;99.90;;;;;;4993048;28;20052;-83
2024/01/09 04:22:36;;;;;;;5.55;4.30;;;-4.40;99.90;;;;;;5024760;28;20417;-83
2024/01/09 04:25:02;;;;;;;5.13;3.58;;;-4.50;99.90;;;;;;5026737;28;20037;-83
2024/01/09 04:27:28;;;;;;;5.25;3.70;;;-4.50;99.90;;;;;;4992105;28;20038;-83
2024/01/09 04:29:54;;;;;;;4.43;3.90;;;-4.50;99.90;;;;;;5010287;28;20041;-82
2024/01/09 04:32:19;;;;;;;4.70;3.92;;;-4.50;99.90;;;;;;5025597;28;20081;-83
2024/01/09 04:34:45;;;;;;;4.60;4.07;;;-4.50;99.90;;;;;;4975929;28;20605;-82
2024/01/09 04:37:11;;;;;;;5.18;3.70;;;-4.50;99.90;;;;;;5010197;28;20124;-82
2024/01/09 04:39:36;;;;;;;4.65;3.92;;;-4.50;99.90;;;;;;4991638;28;20072;-82
2024/01/09 04:42:02;;;;;;;4.55;3.80;;;-4.60;99.90;;;;;;4977685;28;20044;-82
2024/01/09 04:44:28;;;;;;;4.38;3.70;;;-4.50;99.90;;;;;;4991481;28;20048;-82
2024/01/09 04:46:54;;;;;;;4.80;3.97;;;-4.50;99.90;;;;;;5010023;28;20121;-82
2024/01/09 04:49:23;;;;;;;4.75;3.60;;;-4.60;99.90;;;;;;5009690;28;20100;-82
2024/01/09 04:51:49;;;;;;;4.35;3.88;;;-4.60;99.90;;;;;;5009132;28;20459;-81
2024/01/09 04:54:15;;;;;;;4.28;3.85;;;-4.60;99.90;;;;;;4993651;28;20045;-81
2024/01/09 04:56:43;;;;;;;5.85;3.92;;;-4.60;99.90;;;;;;5007780;28;20068;-82
2024/01/09 04:59:09;;;;;;;4.88;3.88;;;-4.60;99.90;;;;;;4977887;28;20049;-82
2024/01/09 05:01:34;;;;;;;4.53;3.70;;;-4.60;99.90;;;;;;4991337;28;20042;-82
2024/01/09 05:04:00;;;;;;;5.05;3.95;;;-4.60;99.90;;;;;;4976615;28;20046;-82
2024/01/09 05:06:26;;;;;;;5.32;4.10;;;-4.60;99.90;;;;;;4991862;28;20057;-81
2024/01/09 05:08:51;;;;;;;4.88;3.83;;;-4.70;99.90;;;;;;4992431;28;20045;-81
2024/01/09 05:11:17;;;;;;;4.90;4.00;;;-4.70;99.90;;;;;;4992915;28;20128;-82
2024/01/09 05:13:43;;;;;;;4.95;3.97;;;-4.70;99.90;;;;;;4991666;28;20061;-82
2024/01/09 05:16:09;;;;;;;10.73;9.63;;;-4.70;99.90;;;;;;5000003;28;20049;-81
2024/01/09 05:18:34;;;;;;;5.57;3.90;;;-4.70;99.90;;;;;;4991281;28;20038;-82
2024/01/09 05:21:00;;;;;;;5.00;4.57;;;-4.70;99.90;;;;;;5009196;28;20108;-81
2024/01/09 05:23:26;;;;;;;5.82;4.38;;;-4.70;99.90;;;;;;4991596;28;20551;-82
2024/01/09 05:25:51;;;;;;;4.35;3.67;;;-4.70;99.90;;;;;;4992331;28;20045;-81
2024/01/09 05:28:17;;;;;;;4.97;4.05;;;-4.70;99.90;;;;;;5009091;28;20052;-82
2024/01/09 05:30:43;;;;;;;6.43;4.18;;;-4.70;99.90;;;;;;4990678;28;20042;-82
2024/01/09 05:33:09;;;;;;;5.40;4.28;;;-4.70;99.90;;;;;;5008636;28;20053;-81
2024/01/09 05:35:34;;;;;;;5.88;4.53;;;-4.80;99.90;;;;;;5006723;28;20374;-81
2024/01/09 05:38:00;;;;;;;4.63;4.13;;;-4.80;99.90;;;;;;5008804;28;20045;-83
2024/01/09 05:40:26;;;;;;;5.07;4.13;;;-4.70;99.90;;;;;;5023277;28;20056;-83
2024/01/09 05:42:51;;;;;;;4.70;3.72;;;-4.80;99.90;;;;;;4992740;28;20045;-83
2024/01/09 05:45:17;;;;;;;4.35;3.95;;;-4.80;99.90;;;;;;4992104;28;20041;-83
2024/01/09 05:47:43;;;;;;;5.15;4.40;;;-4.80;99.90;;;;;;4991283;28;20042;-83
2024/01/09 05:50:09;;;;;;;4.45;3.55;;;-4.80;99.90;;;;;;5009079;28;20081;-83
2024/01/09 05:52:38;;;;;;;4.57;3.67;;;-4.80;99.90;;;;;;5006772;28;20617;-83
2024/01/09 05:55:06;;;;;;;4.53;3.97;;;-4.90;99.90;;;;;;5009612;28;20565;-83
2024/01/09 05:57:32;;;;;;;7.35;4.00;;;-4.90;99.90;;;;;;5023347;28;20041;-83
2024/01/09 05:59:58;;;;;;;5.28;4.60;;;-5.00;99.90;;;;;;5008792;28;20485;-83
2024/01/09 06:02:25;;;;;;;4.15;3.63;;;-5.00;99.90;;;;;;4991582;28;20053;-83
2024/01/09 06:04:51;;;;;;;4.43;4.03;;;-4.90;99.90;;;;;;5023484;28;20064;-83
2024/01/09 06:07:17;;;;;;;5.70;3.70;;;-4.90;99.90;;;;;;5008256;28;20076;-80
2024/01/09 06:09:43;;;;;;;5.07;4.07;;;-4.90;99.90;;;;;;4990590;28;20054;-81
2024/01/09 06:12:09;;;;;;;4.72;4.10;;;-4.90;99.90;;;;;;5008507;28;20162;-81
2024/01/09 06:14:35;;;;;;;5.80;5.20;;;-4.90;99.90;;;;;;5007187;28;20065;-81
2024/01/09 06:17:01;;;;;;;4.47;3.83;;;-4.90;99.90;;;;;;5008286;28;20533;-81
2024/01/09 06:19:27;;;;;;;4.43;4.03;;;-5.00;99.90;;;;;;5024147;28;20052;-81
2024/01/09 06:21:52;;;;;;;3.97;3.58;;;-5.00;99.90;;;;;;5007285;28;20030;-81
2024/01/09 06:24:18;;;;;;;4.68;3.92;;;-5.10;99.90;;;;;;5008650;28;20049;-81
2024/01/09 06:26:44;;;;;;;4.53;3.72;;;-5.10;99.90;;;;;;5006487;28;20065;-81
2024/01/09 06:29:10;;;;;;;4.32;3.83;;;-5.10;99.90;;;;;;5008245;28;20105;-81
2024/01/09 06:31:35;;;;;;;4.95;3.95;;;-5.10;99.90;;;;;;4989945;28;20049;-81
2024/01/09 06:34:01;;;;;;;6.30;4.13;;;-5.20;99.90;;;;;;5008126;28;20056;-81
2024/01/09 06:36:27;;;;;;;4.60;4.10;;;-5.20;99.90;;;;;;5007344;28;20046;-80
2024/01/09 06:38:52;;;;;;;5.03;3.67;;;-5.20;99.90;;;;;;5007202;28;20444;-80
2024/01/09 06:41:18;;;;;;;4.65;4.18;;;-5.20;99.90;;;;;;5024755;28;20048;-80
2024/01/09 06:43:44;;;;;;;5.07;3.83;;;-5.20;99.90;;;;;;5008447;28;20045;-80
2024/01/09 06:46:10;;;;;;;5.70;3.80;;;-5.20;99.90;;;;;;5011698;28;20052;-80
2024/01/09 06:48:36;;;;;;;4.40;3.90;;;-5.20;99.90;;;;;;5010307;28;20050;-80
2024/01/09 06:51:01;;;;;;;4.80;4.30;;;-5.20;99.90;;;;;;4995617;28;20044;-80
2024/01/09 06:53:27;;;;;;;4.85;4.10;;;-5.20;99.90;;;;;;4994154;28;20378;-80
2024/01/09 06:55:53;;;;;;;4.63;3.95;;;-5.30;99.90;;;;;;5011123;28;20088;-80
2024/01/09 06:58:19;;;;;;;4.30;3.90;;;-5.30;99.90;;;;;;5011308;28;20046;-80
2024/01/09 07:00:45;;;;;;;6.32;3.80;;;-5.40;99.90;;;;;;5010145;28;20045;-81
2024/01/09 07:03:10;;;;;;;4.25;3.85;;;-5.40;99.90;;;;;;5027529;28;20199;-81
2024/01/09 07:05:36;;;;;;;5.82;4.22;;;-5.40;99.90;;;;;;5009844;28;20034;-81
2024/01/09 07:08:03;;;;;;;5.20;4.03;;;-5.40;99.90;;;;;;5024679;28;20049;-80
2024/01/09 07:10:29;;;;;;;6.00;4.20;;;-5.40;99.90;;;;;;5023083;28;20592;-81
2024/01/09 07:12:56;;;;;;;4.47;3.83;;;-5.40;99.90;;;;;;4991509;28;20133;-81
2024/01/09 07:15:21;;;;;;;6.38;4.00;;;-5.40;99.90;;;;;;5023978;28;20048;-80
2024/01/09 07:17:47;;;;;;;5.35;3.88;;;-5.00;99.90;;;;;;5006808;28;20038;-80
2024/01/09 07:20:13;;;;;;;5.65;4.32;;;-5.50;99.90;;;;;;5016829;28;20050;-80
2024/01/09 07:22:39;;;;;;;5.32;4.20;;;-5.40;99.90;;;;;;5006155;28;20044;-80
2024/01/09 07:25:05;;;;;;;5.93;4.38;;;-5.40;99.90;;;;;;5007984;28;20082;-80
2024/01/09 07:27:31;;;;;;;5.57;4.45;;;-5.40;99.90;;;;;;4990378;28;20076;-80
2024/01/09 07:29:56;;;;;;;5.50;3.72;;;-5.40;99.90;;;;;;5023509;28;20444;-80
2024/01/09 07:32:22;;;;;;;5.00;4.43;;;-5.40;99.90;;;;;;5022608;28;20049;-80
2024/01/09 07:34:49;;;;;;;5.13;4.13;;;-5.40;99.90;;;;;;5006350;28;20452;-80
2024/01/09 07:37:15;;;;;;;5.72;4.43;;;-5.40;99.90;;;;;;5024072;28;20422;-80
2024/01/09 07:39:41;;;;;;;6.03;4.35;;;-5.40;99.90;;;;;;4992439;28;20084;-80
2024/01/09 07:42:07;;;;;;;5.95;4.72;;;-5.30;99.90;;;;;;5027031;28;20099;-80
2024/01/09 07:44:34;;;;;;;5.57;4.43;;;-5.30;99.90;;;;;;5042004;28;20064;-80
2024/01/09 07:46:59;;;;;;;5.20;4.20;;;-5.20;99.90;;;;;;5026806;28;20068;-80
2024/01/09 07:49:25;;;;;;;5.00;4.50;;;-4.70;99.90;;;;;;5026253;28;20081;-80
2024/01/09 07:51:51;;;;;;;6.28;4.30;;;-5.10;99.90;;;;;;5026541;28;20093;-80
2024/01/09 07:54:17;;;;;;;6.15;4.78;;;-5.10;99.90;;;;;;5027001;28;20048;-80
2024/01/09 07:56:42;;;;;;;5.90;4.68;;;-5.10;99.90;;;;;;5041669;28;20120;-80
2024/01/09 07:59:09;;;;;;;5.22;4.07;;;-5.10;99.90;;;;;;5043130;28;20041;-80
2024/01/09 08:01:35;;;;;;;5.30;4.55;;;-5.10;99.90;;;;;;5025069;28;20112;-80
2024/01/09 08:04:01;;;;;;;6.00;4.25;;;-5.10;99.90;;;;;;5043154;28;20064;-82
2024/01/09 08:06:27;;;;;;;4.65;4.13;;;-5.10;99.90;;;;;;5045373;28;20486;-81
2024/01/09 08:08:53;;;;;;;5.65;4.55;;;-5.00;99.90;;;;;;5045900;28;20068;-81
2024/01/09 08:11:18;;;;;;;5.30;4.15;;;-5.00;99.90;;;;;;5030089;28;20119;-81
2024/01/09 08:13:44;;;;;;;4.60;4.03;;;-5.00;99.90;;;;;;5016213;28;20044;-82
2024/01/09 08:16:10;;;;;;;6.22;4.20;;;-5.00;99.90;;;;;;5017493;28;20144;-82
2024/01/09 08:18:37;;;;;;;5.75;5.13;;;-4.90;99.90;;;;;;5023533;28;20049;-82
2024/01/09 08:21:03;;;;;;;6.38;4.68;;;-4.90;99.90;;;;;;5028034;28;20047;-81
2024/01/09 08:23:29;;;;;;;5.45;4.50;;;-4.90;99.90;;;;;;5042836;28;20037;-82
2024/01/09 08:25:55;;;;;;;8.15;5.25;;;-4.80;99.90;;;;;;5043701;28;20048;-82
2024/01/09 08:28:21;;;;;;;6.18;4.70;;;-4.80;99.90;;;;;;5016565;28;20041;-82
2024/01/09 08:30:47;;;;;;;5.50;4.63;;;-4.80;99.90;;;;;;5041949;28;20044;-82
2024/01/09 08:33:13;;;;;;;6.13;4.20;;;-4.70;99.90;;;;;;5008938;28;20060;-81
2024/01/09 08:35:39;;;;;;;5.28;4.18;;;-4.60;99.90;;;;;;5007496;28;20041;-82
2024/01/09 08:38:05;;;;;;;5.63;4.38;;;-4.60;99.90;;;;;;5025738;28;20052;-82
2024/01/09 08:40:31;;;;;;;6.15;4.28;;;-4.50;99.90;;;;;;5016800;28;20037;-82
2024/01/09 08:42:57;;;;;;;6.75;4.85;;;-4.40;99.90;;;;;;4992692;28;20071;-82
2024/01/09 08:45:24;;;;;;;5.85;4.55;;;-4.40;99.90;;;;;;4992275;28;20044;-82
2024/01/09 08:47:50;;;;;;;5.57;4.78;;;-4.30;99.90;;;;;;5007744;28;20060;-82
2024/01/09 08:50:16;;;;;;;5.32;4.82;;;-4.30;99.90;;;;;;5008908;28;20493;-82
2024/01/09 08:52:42;;;;;;;5.40;4.47;;;-4.20;99.90;;;;;;5016499;28;20049;-82
2024/01/09 08:55:07;;;;;;;5.30;4.50;;;-2.60;99.90;;;;;;5012843;28;20048;-82
2024/01/09 08:57:33;;;;;;;7.57;4.78;;;-4.10;99.90;;;;;;5026866;28;20033;-82
2024/01/09 08:59:59;;;;;;;6.28;4.20;;;-4.00;99.90;;;;;;5045185;28;20527;-82
2024/01/09 09:02:24;;;;;;;6.32;4.60;;;-3.90;99.90;;;;;;4995764;28;20072;-82
2024/01/09 09:04:51;;;;;;;6.00;3.97;;;-3.90;99.90;;;;;;5042547;28;20041;-82
2024/01/09 09:07:20;;;;;;;6.60;4.15;;;-3.20;99.90;;;;;;5040943;28;20057;-82
2024/01/09 09:09:45;;;;;;;4.15;3.42;;;-3.80;99.90;;;;;;5040213;28;20053;-82
2024/01/09 09:12:12;;;;;;;4.50;3.90;;;-3.80;99.90;;;;;;5025513;28;20136;-83
2024/01/09 09:14:37;;;;;;;4.43;3.80;;;-3.40;99.90;;;;;;5023062;28;20049;-83
2024/01/09 09:17:03;;;;;;;5.50;4.00;;;-3.70;99.90;;;;;;5023698;28;20046;-80
2024/01/09 09:19:31;;;;;;;5.72;4.45;;;-3.60;99.90;;;;;;5024570;28;20041;-81
2024/01/09 09:21:57;;;;;;;6.40;4.45;;;-3.60;99.90;;;;;;5039095;28;20049;-81
2024/01/09 09:24:23;;;;;;;5.28;4.88;;;-3.50;99.90;;;;;;5036534;28;20389;-81
2024/01/09 09:26:49;;;;;;;5.65;5.07;;;-3.70;99.90;;;;;;5016706;28;20038;-81
2024/01/09 09:29:15;;;;;;;5.38;4.93;;;-3.40;99.90;;;;;;5019597;28;20659;-81
2024/01/09 09:31:40;;;;;;;5.05;4.55;;;-3.40;99.90;;;;;;5028710;28;20128;-81
2024/01/09 09:34:07;;;;;;;7.60;4.63;;;-3.30;99.90;;;;;;5017261;28;20045;-81
2024/01/09 09:36:32;;;;;;;4.57;4.18;;;-3.30;99.90;;;;;;5040425;28;20061;-81
2024/01/09 09:38:58;;;;;;;5.47;4.50;;;-3.10;99.90;;;;;;5037263;28;20053;-81
2024/01/09 09:41:24;;;;;;;4.70;4.30;;;-3.20;99.90;;;;;;5040358;28;20079;-81
2024/01/09 09:44:01;;;;;;;4.70;4.20;;;-3.10;99.90;;;;;;5022711;28;20392;-81
2024/01/09 09:46:30;;;;;;;4.10;3.80;;;-3.10;99.90;;;;;;5025015;28;20049;-81
2024/01/09 09:48:56;;;;;;;4.70;4.20;;;-3.00;99.90;;;;;;5023226;28;20128;-81
2024/01/09 09:51:24;;;;;;;4.20;3.70;;;-3.00;99.90;;;;;;5040161;28;20041;-82
2024/01/09 09:53:50;;;;;;;4.43;3.38;;;-2.90;99.90;;;;;;5039962;28;20092;-81
2024/01/09 09:56:16;;;;;;;3.10;2.60;;;-2.90;99.90;;;;;;5023524;28;20511;-82
2024/01/09 09:58:42;;;;;;;3.50;3.20;;;-2.80;99.90;;;;;;5024621;28;20100;-82
2024/01/09 10:01:14;;;;;;;3.10;2.70;;;-2.70;99.90;;;;;;5039468;28;20128;-82
2024/01/09 10:04:13;;;;;;;3.78;2.80;;;-2.70;99.90;;;;;;5041292;28;20108;-82
2024/01/09 10:06:43;;;;;;;5.57;3.05;;;-2.60;99.90;;;;;;5016997;28;20140;-82
2024/01/09 10:09:13;;;;;;;4.03;3.17;;;-2.40;99.90;;;;;;5023776;28;20049;-82
2024/01/09 10:11:39;;;;;;;3.72;2.58;;;-2.40;99.90;;;;;;5024618;28;20045;-82
2024/01/09 10:14:08;;;;;;;3.42;2.63;;;-2.20;99.90;;;;;;5020313;28;20059;-82
2024/01/09 10:16:50;;;;;;;2.92;2.45;;;-2.10;99.90;;;;;;5028456;28;20056;-82
2024/01/09 10:19:17;;;;;;;4.55;2.80;;;-1.50;99.90;;;;;;5045839;28;20083;-81
2024/01/09 10:21:45;;;;;;;3.58;2.50;;;-1.60;99.90;;;;;;5047445;28;20047;-82
2024/01/09 10:24:11;;;;;;;3.38;2.50;;;-0.60;99.90;;;;;;5015031;28;20037;-81
2024/01/09 10:26:40;;;;;;;3.67;2.60;;;-0.90;99.90;;;;;;5045842;28;20045;-81
2024/01/09 10:29:11;;;;;;;3.70;2.78;;;0.10;99.90;;;;;;5047275;28;20055;-81
2024/01/09 10:31:44;;;;;;;4.57;3.53;;;0.20;99.90;;;;;;5020738;28;20111;-81
2024/01/09 10:34:10;;;;;;;4.72;2.63;;;0.70;99.90;;;;;;5011566;28;20084;-81
2024/01/09 10:36:36;;;;;;;4.57;3.00;;;1.20;99.90;;;;;;5010952;28;20049;-81
2024/01/09 10:39:06;;;;;;;3.60;2.70;;;1.60;99.90;;;;;;5010908;28;20048;-82
2024/01/09 10:41:33;;;;;;;3.30;2.97;;;2.50;99.90;;;;;;5011480;28;20127;-81
2024/01/09 10:44:05;;;;;;;3.03;2.40;;;2.90;99.90;;;;;;5008325;28;20041;-81
2024/01/09 10:46:33;;;;;;;4.00;3.05;;;2.90;99.90;;;;;;5027869;28;20049;-81
2024/01/09 10:49:00;;;;;;;4.50;2.70;;;3.00;99.90;;;;;;4993472;28;20048;-82
2024/01/09 10:51:26;;;;;;;4.57;2.33;;;3.20;99.90;;;;;;5027993;28;20053;-81
2024/01/09 10:53:53;;;;;;;3.75;2.58;;;3.40;99.90;;;;;;5035271;28;20366;-81
2024/01/09 10:56:23;;;;;;;3.25;2.78;;;3.60;99.90;;;;;;5029220;28;20723;-81
2024/01/09 10:58:49;;;;;;;5.38;2.80;;;3.80;99.90;;;;;;5047591;28;20052;-81
2024/01/09 11:01:16;;;;;;;3.90;2.70;;;3.80;99.90;;;;;;5011985;28;20100;-81
2024/01/09 11:03:42;;;;;;;3.13;2.78;;;4.00;99.90;;;;;;5045849;28;20132;-81
2024/01/09 11:06:09;;;;;;;3.63;2.20;;;3.90;99.90;;;;;;5027798;28;20045;-80
2024/01/09 11:08:36;;;;;;;4.75;2.60;;;4.00;99.90;;;;;;5037503;28;20208;-81
2024/01/09 11:11:12;;;;;;;3.58;2.63;;;3.60;99.90;;;;;;5029031;28;20053;-81
2024/01/09 11:13:42;;;;;;;4.15;2.58;;;3.40;99.90;;;;;;5035037;28;20562;-81
2024/01/09 11:16:11;;;;;;;3.30;2.38;;;3.10;99.90;;;;;;5037989;28;20092;-81
2024/01/09 11:18:38;;;;;;;4.10;2.90;;;2.20;99.90;;;;;;5042238;28;20045;-82
2024/01/09 11:21:06;;;;;;;3.78;2.60;;;1.50;99.90;;;;;;5045762;28;20048;-81
2024/01/09 11:23:46;;;;;;;3.03;2.40;;;0.70;99.90;;;;;;5012287;28;20041;-81
2024/01/09 11:26:15;;;;;;;4.35;2.70;;;0.10;99.90;;;;;;5029459;28;20468;-81
2024/01/09 11:28:43;;;;;;;3.42;2.67;;;-0.20;99.90;;;;;;5014215;28;20048;-81
2024/01/09 11:31:12;;;;;;;3.20;2.40;;;-0.40;99.90;;;;;;5021863;28;20041;-81
2024/01/09 11:33:41;;;;;;;5.15;3.03;;;-0.60;99.90;;;;;;5010462;28;20041;-81
2024/01/09 11:36:08;;;;;;;4.15;2.78;;;-0.80;99.90;;;;;;5008308;28;20049;-81
2024/01/09 11:38:34;;;;;;;3.78;3.03;;;-0.90;99.90;;;;;;5010034;28;20088;-81
2024/01/09 11:41:09;;;;;;;4.32;2.63;;;-0.20;99.90;;;;;;5025362;28;20096;-81
2024/01/09 11:43:57;;;;;;;4.20;2.60;;;-0.80;99.90;;;;;;5042439;28;20044;-81
2024/01/09 11:46:24;;;;;;;3.88;3.15;;;-0.90;99.90;;;;;;5046427;28;20040;-82
2024/01/09 11:48:49;;;;;;;4.63;3.17;;;-1.00;99.90;;;;;;5044560;28;20060;-81
2024/01/09 11:51:16;;;;;;;3.08;2.55;;;-1.10;99.90;;;;;;5046759;28;20049;-81
2024/01/09 11:53:42;;;;;;;3.40;2.90;;;-1.10;99.90;;;;;;5044411;28;20048;-81
2024/01/09 11:56:12;;;;;;;4.38;3.10;;;-1.10;99.90;;;;;;5028852;28;20080;-81
2024/01/09 11:58:38;;;;;;;3.55;3.03;;;-1.10;99.90;;;;;;5046444;28;20052;-81
2024/01/09 12:01:05;;;;;;;5.07;3.17;;;-0.80;99.90;;;;;;5044331;28;20071;-81
2024/01/09 12:03:32;;;;;;;3.67;2.60;;;-1.10;99.90;;;;;;5045832;28;20045;-81
2024/01/09 12:05:58;;;;;;;2.95;2.65;;;-1.20;99.90;;;;;;5010801;28;20072;-79
2024/01/09 12:08:24;;;;;;;4.70;2.78;;;-1.30;99.90;;;;;;5008694;28;20064;-79
2024/01/09 12:10:50;;;;;;;4.07;3.00;;;-1.40;99.90;;;;;;5025815;28;20049;-78
2024/01/09 12:13:19;;;;;;;4.57;3.40;;;-1.40;99.90;;;;;;5001629;28;20053;-79
2024/01/09 12:15:45;;;;;;;3.92;3.35;;;-1.50;99.90;;;;;;4990171;28;20060;-79
2024/01/09 12:18:11;;;;;;;3.95;3.08;;;-1.50;99.90;;;;;;4989993;28;20084;-79
2024/01/09 12:20:38;;;;;;;5.20;2.92;;;-1.60;99.90;;;;;;5010175;28;20045;-79
2024/01/09 12:23:05;;;;;;;3.38;2.95;;;-1.50;99.90;;;;;;5008090;28;20136;-79
2024/01/09 12:25:31;;;;;;;4.55;3.47;;;-1.50;99.90;;;;;;5042369;28;20049;-79
2024/01/09 12:27:58;;;;;;;3.45;2.67;;;-1.40;99.90;;;;;;5009150;28;20049;-79
2024/01/09 12:30:24;;;;;;;4.68;2.80;;;-0.90;99.90;;;;;;5007227;28;20053;-79
2024/01/09 12:32:50;;;;;;;4.78;2.78;;;-0.50;99.90;;;;;;4990948;28;20046;-79
2024/01/09 12:35:17;;;;;;;4.20;3.03;;;-0.20;99.90;;;;;;5004261;28;20101;-79
2024/01/09 12:37:46;;;;;;;7.30;2.65;;;-0.40;99.90;;;;;;5005861;28;20046;-79
2024/01/09 12:40:19;;;;;;;3.75;2.67;;;-0.50;99.90;;;;;;5020430;28;20056;-79
2024/01/09 12:42:45;;;;;;;3.03;2.72;;;-0.50;99.90;;;;;;5003788;28;20105;-79
2024/01/09 12:45:11;;;;;;;3.53;3.17;;;-0.70;99.90;;;;;;4983915;28;20033;-78